Time;durP1;ratioP1;P1;durP2;ratioP2;P2;SDS_P1;SDS_P2;PMS_P1;PMS_P2;Temp;Humidity;BMP_temperature;BMP_pressure;BME280_temperature;BME280_humidity;BME280_pressure;Samples;Min_cycle;Max_cycle;Signal;HPM_P1;HPM_P2
2022/04/30 00:00:41;;;;;;;;;;;;;;;;;;5038233;28;19909;-70
2022/04/30 00:03:09;;;;;;;;;;;;;;;;;;5038591;28;19916;-70
2022/04/30 00:05:35;;;;;;;;;;;;;;;;;;5038337;28;19909;-70
2022/04/30 00:08:01;;;;;;;;;;;;;;;;;;5038714;28;20394;-70
2022/04/30 00:10:27;;;;;;;;;;;;;;;;;;5038173;28;19913;-70
2022/04/30 00:12:53;;;;;;;;;;;;;;;;;;5038154;28;19939;-70
2022/04/30 00:15:20;;;;;;;;;;;;;;;;;;5038787;28;19909;-70
2022/04/30 00:17:46;;;;;;;;;;;;;;;;;;5037971;28;19915;-70
2022/04/30 00:20:12;;;;;;;;;;;;;;;;;;5037656;28;19909;-70
2022/04/30 00:22:38;;;;;;;;;;;;;;;;;;5038819;28;19915;-70
2022/04/30 00:25:04;;;;;;;;;;;;;;;;;;5038201;28;20348;-70
2022/04/30 00:27:31;;;;;;;;;;;;;;;;;;5037934;28;19916;-70
2022/04/30 00:29:58;;;;;;;;;;;;;;;;;;5037995;28;19940;-70
2022/04/30 00:32:24;;;;;;;;;;;;;;;;;;5038070;28;19999;-70
2022/04/30 00:34:50;;;;;;;;;;;;;;;;;;5037514;28;19975;-70
2022/04/30 00:37:16;;;;;;;;;;;;;;;;;;5038043;28;19909;-70
2022/04/30 00:39:42;;;;;;;;;;;;;;;;;;5037580;28;19909;-70
2022/04/30 00:42:08;;;;;;;;;;;;;;;;;;5037634;28;19984;-70
2022/04/30 00:44:34;;;;;;;;;;;;;;;;;;5037799;28;19909;-70
2022/04/30 00:47:00;;;;;;;;;;;;;;;;;;5038010;28;19917;-70
2022/04/30 00:49:26;;;;;;;;;;;;;;;;;;5037021;28;19913;-70
2022/04/30 00:51:52;;;;;;;;;;;;;;;;;;5037264;28;19909;-70
2022/04/30 00:54:18;;;;;;;;;;;;;;;;;;5037677;28;19912;-70
2022/04/30 00:56:44;;;;;;;;;;;;;;;;;;5037293;28;19909;-70
2022/04/30 00:59:10;;;;;;;;;;;;;;;;;;5037025;28;19939;-70
2022/04/30 01:01:36;;;;;;;;;;;;;;;;;;5037184;28;19909;-70
2022/04/30 01:04:03;;;;;;;;;;;;;;;;;;5036925;28;19909;-70
2022/04/30 01:06:29;;;;;;;;;;;;;;;;;;5036958;28;20348;-70
2022/04/30 01:08:55;;;;;;;;;;;;;;;;;;5036757;28;19917;-70
2022/04/30 01:11:22;;;;;;;;;;;;;;;;;;5037158;28;19909;-70
2022/04/30 01:13:48;;;;;;;;;;;;;;;;;;5036943;28;19913;-70
2022/04/30 01:16:14;;;;;;;;;;;;;;;;;;5037128;28;19916;-70
2022/04/30 01:18:40;;;;;;;;;;;;;;;;;;5036922;28;20336;-70
2022/04/30 01:21:05;;;;;;;;;;;;;;;;;;5036416;28;19909;-70
2022/04/30 01:23:32;;;;;;;;;;;;;;;;;;5036730;28;19909;-70
2022/04/30 01:25:58;;;;;;;;;;;;;;;;;;5036960;28;19916;-70
2022/04/30 01:28:24;;;;;;;;;;;;;;;;;;5036483;28;19913;-70
2022/04/30 01:30:50;;;;;;;;;;;;;;;;;;5036321;28;19988;-70
2022/04/30 01:37:22;;;;;;;;;;;;;;;;;;5035675;28;19950;-70
2022/04/30 01:38:49;;;;;;;;;;;;;;;;;;5036010;28;20246;-70
2022/04/30 01:41:15;;;;;;;;;;;;;;;;;;5036267;28;19913;-70
2022/04/30 01:43:41;;;;;;;;;;;;;;;;;;5036444;28;20340;-70
2022/04/30 01:46:07;;;;;;;;;;;;;;;;;;5036552;28;20244;-70
2022/04/30 01:48:33;;;;;;;;;;;;;;;;;;5036011;28;19913;-70
2022/04/30 01:51:00;;;;;;;;;;;;;;;;;;5035958;28;19948;-70
2022/04/30 01:53:26;;;;;;;;;;;;;;;;;;5035876;28;19916;-70
2022/04/30 01:55:52;;;;;;;;;;;;;;;;;;5035294;28;20043;-70
2022/04/30 01:58:19;;;;;;;;;;;;;;;;;;5036708;28;19940;-70
2022/04/30 02:00:45;;;;;;;;;;;;;;;;;;5036258;28;19982;-70
2022/04/30 02:03:12;;;;;;;;;;;;;;;;;;5036624;28;20324;-70
2022/04/30 02:05:38;;;;;;;;;;;;;;;;;;5035842;28;19916;-70
2022/04/30 02:08:04;;;;;;;;;;;;;;;;;;5035912;28;20371;-70
2022/04/30 02:10:30;;;;;;;;;;;;;;;;;;5036074;28;19917;-70
2022/04/30 02:12:56;;;;;;;;;;;;;;;;;;5036458;28;19909;-70
2022/04/30 02:15:22;;;;;;;;;;;;;;;;;;5035294;28;19909;-70
2022/04/30 02:17:48;;;;;;;;;;;;;;;;;;5035501;28;19999;-70
2022/04/30 02:20:24;;;;;;;;;;;;;;;;;;5035304;28;19909;-70
2022/04/30 02:22:50;;;;;;;;;;;;;;;;;;5035703;28;19913;-70
2022/04/30 02:25:16;;;;;;;;;;;;;;;;;;5035967;28;19909;-70
2022/04/30 02:27:42;;;;;;;;;;;;;;;;;;5035839;28;19920;-70
2022/04/30 02:30:08;;;;;;;;;;;;;;;;;;5035696;28;20007;-70
2022/04/30 02:32:34;;;;;;;;;;;;;;;;;;5035547;28;19909;-70
2022/04/30 02:35:00;;;;;;;;;;;;;;;;;;5035423;28;19917;-70
2022/04/30 02:37:27;;;;;;;;;;;;;;;;;;5036301;28;19909;-70
2022/04/30 02:39:53;;;;;;;;;;;;;;;;;;5035670;28;20000;-70
2022/04/30 02:42:19;;;;;;;;;;;;;;;;;;5035697;28;19909;-70
2022/04/30 02:44:45;;;;;;;;;;;;;;;;;;5036125;28;19909;-70
2022/04/30 02:47:11;;;;;;;;;;;;;;;;;;5035223;28;19913;-70
2022/04/30 02:49:38;;;;;;;;;;;;;;;;;;5035594;28;20386;-70
2022/04/30 02:52:04;;;;;;;;;;;;;;;;;;5035531;28;19909;-70
2022/04/30 02:54:33;;;;;;;;;;;;;;;;;;5035516;28;19952;-70
2022/04/30 02:56:59;;;;;;;;;;;;;;;;;;5035444;28;19909;-70
2022/04/30 03:02:10;;;;;;;;;;;;;;;;;;5034895;28;19974;-70
2022/04/30 03:04:36;;;;;;;;;;;;;;;;;;5035419;28;20344;-70
2022/04/30 03:07:02;;;;;;;;;;;;;;;;;;5035268;28;20256;-70
2022/04/30 03:09:28;;;;;;;;;;;;;;;;;;5035295;28;19975;-70
2022/04/30 03:11:53;;;;;;;;;;;;;;;;;;5035275;28;19948;-70
2022/04/30 03:14:19;;;;;;;;;;;;;;;;;;5035334;28;19917;-70
2022/04/30 03:22:15;;;;;;;;;;;;;;;;;;5034652;28;19955;-70
2022/04/30 03:24:41;;;;;;;;;;;;;;;;;;5035074;28;20007;-70
2022/04/30 03:27:07;;;;;;;;;;;;;;;;;;5035200;28;19912;-70
2022/04/30 03:29:33;;;;;;;;;;;;;;;;;;5035636;28;19920;-70
2022/04/30 03:31:59;;;;;;;;;;;;;;;;;;5035592;28;19909;-70
2022/04/30 03:34:28;;;;;;;;;;;;;;;;;;5035050;28;19944;-70
2022/04/30 03:36:54;;;;;;;;;;;;;;;;;;5034658;28;19924;-70
2022/04/30 03:39:20;;;;;;;;;;;;;;;;;;5035020;28;19909;-70
2022/04/30 03:41:46;;;;;;;;;;;;;;;;;;5034751;28;19909;-70
2022/04/30 03:44:12;;;;;;;;;;;;;;;;;;5034668;28;20008;-70
2022/04/30 03:46:38;;;;;;;;;;;;;;;;;;5017099;28;20340;-70
2022/04/30 03:49:04;;;;;;;;;;;;;;;;;;5034953;28;19913;-70
2022/04/30 03:51:30;;;;;;;;;;;;;;;;;;5034646;28;19920;-70
2022/04/30 03:53:56;;;;;;;;;;;;;;;;;;5017119;28;19909;-70
2022/04/30 03:56:24;;;;;;;;;;;;;;;;;;5034910;28;19995;-70
2022/04/30 03:58:50;;;;;;;;;;;;;;;;;;5034853;28;19916;-70
2022/04/30 04:01:18;;;;;;;;;;;;;;;;;;5034888;28;19909;-70
2022/04/30 04:03:44;;;;;;;;;;;;;;;;;;5034783;28;19913;-70
2022/04/30 04:06:10;;;;;;;;;;;;;;;;;;5034773;28;20295;-70
2022/04/30 04:08:36;;;;;;;;;;;;;;;;;;5034867;28;19913;-70
2022/04/30 04:11:02;;;;;;;;;;;;;;;;;;5034930;28;20434;-70
2022/04/30 04:18:57;;;;;;;;;;;;;;;;;;5037567;28;19916;-70
2022/04/30 04:21:23;;;;;;;;;;;;;;;;;;5037947;28;20287;-70
2022/04/30 04:26:34;;;;;;;;;;;;;;;;;;5037692;28;19916;-70
2022/04/30 04:31:39;;;;;;;;;;;;;;;;;;5514701;22;19928;-70
2022/04/30 04:34:05;;;;;;;;;;;;;;;;;;5548138;23;19925;-70
2022/04/30 04:41:43;;;;;;;;;;;;;;;;;;5401537;23;19972;-70
2022/04/30 04:46:45;;;;;;;;;;;;;;;;;;5408006;23;19947;-69
2022/04/30 04:49:11;;;;;;;;;;;;;;;;;;5037607;28;20003;-70
2022/04/30 04:51:37;;;;;;;;;;;;;;;;;;5037416;28;19909;-70
2022/04/30 04:54:03;;;;;;;;;;;;;;;;;;5572715;22;20382;-70
2022/04/30 04:56:29;;;;;;;;;;;;;;;;;;5569322;22;19925;-70
2022/04/30 04:58:55;;;;;;;;;;;;;;;;;;5016574;28;20333;-70
2022/04/30 05:01:21;;;;;;;;;;;;;;;;;;5016536;28;20000;-70
2022/04/30 05:03:47;;;;;;;;;;;;;;;;;;5016339;28;19910;-70
2022/04/30 05:06:13;;;;;;;;;;;;;;;;;;5016300;28;19909;-70
2022/04/30 05:08:39;;;;;;;;;;;;;;;;;;5016398;28;19924;-70
2022/04/30 05:11:05;;;;;;;;;;;;;;;;;;5016092;28;20007;-70
2022/04/30 05:13:31;;;;;;;;;;;;;;;;;;5016381;28;19991;-70
2022/04/30 05:15:57;;;;;;;;;;;;;;;;;;5016197;28;20004;-70
2022/04/30 05:18:23;;;;;;;;;;;;;;;;;;5016320;28;20444;-70
2022/04/30 05:20:49;;;;;;;;;;;;;;;;;;5016258;28;19949;-70
2022/04/30 05:23:15;;;;;;;;;;;;;;;;;;5016103;28;19913;-70
2022/04/30 05:25:41;;;;;;;;;;;;;;;;;;5016067;28;19910;-70
2022/04/30 05:28:07;;;;;;;;;;;;;;;;;;5015861;28;20328;-70
2022/04/30 05:30:33;;;;;;;;;;;;;;;;;;5015099;28;20016;-70
2022/04/30 05:32:59;;;;;;;;;;;;;;;;;;5015962;28;19909;-70
2022/04/30 05:35:25;;;;;;;;;;;;;;;;;;5015953;28;19921;-70
2022/04/30 05:37:51;;;;;;;;;;;;;;;;;;5016097;28;19916;-70
2022/04/30 05:40:18;;;;;;;;;;;;;;;;;;5015681;28;19913;-70
2022/04/30 05:42:44;;;;;;;;;;;;;;;;;;5015353;28;20426;-70
2022/04/30 05:45:10;;;;;;;;;;;;;;;;;;5015525;28;19909;-70
2022/04/30 05:47:37;;;;;;;;;;;;;;;;;;5015783;28;19914;-70
2022/04/30 05:50:03;;;;;;;;;;;;;;;;;;5015648;28;19913;-70
2022/04/30 05:52:29;;;;;;;;;;;;;;;;;;5015373;28;20001;-70
2022/04/30 05:54:55;;;;;;;;;;;;;;;;;;5015604;28;19909;-70
2022/04/30 05:57:21;;;;;;;;;;;;;;;;;;5015138;28;19971;-70
2022/04/30 05:59:47;;;;;;;;;;;;;;;;;;5015098;28;19944;-71
2022/04/30 06:02:13;;;;;;;;;;;;;;;;;;5014946;28;20319;-70
2022/04/30 06:04:39;;;;;;;;;;;;;;;;;;5014898;28;20383;-71
2022/04/30 06:07:05;;;;;;;;;;;;;;;;;;5015120;28;19920;-70
2022/04/30 06:09:31;;;;;;;;;;;;;;;;;;5014863;28;19913;-70
2022/04/30 06:11:57;;;;;;;;;;;;;;;;;;5013278;28;19974;-70
2022/04/30 06:14:22;;;;;;;;;;;;;;;;;;5013886;28;19910;-70
2022/04/30 06:16:48;;;;;;;;;;;;;;;;;;5014460;28;19915;-70
2022/04/30 06:19:14;;;;;;;;;;;;;;;;;;5014844;28;19913;-70
2022/04/30 06:21:40;;;;;;;;;;;;;;;;;;5014065;28;19916;-70
2022/04/30 06:24:06;;;;;;;;;;;;;;;;;;5014039;28;20004;-70
2022/04/30 06:26:33;;;;;;;;;;;;;;;;;;5013683;28;19957;-70
2022/04/30 06:28:58;;;;;;;;;;;;;;;;;;5014392;28;19940;-70
2022/04/30 06:31:24;;;;;;;;;;;;;;;;;;5013847;28;20360;-70
2022/04/30 06:33:52;;;;;;;;;;;;;;;;;;5014644;28;20568;-70
2022/04/30 06:36:18;;;;;;;;;;;;;;;;;;5014762;28;20099;-70
2022/04/30 06:38:43;;;;;;;;;;;;;;;;;;5014292;28;19917;-70
2022/04/30 06:41:09;;;;;;;;;;;;;;;;;;5013321;28;20293;-70
2022/04/30 06:43:35;;;;;;;;;;;;;;;;;;5014242;28;20315;-70
2022/04/30 06:46:01;;;;;;;;;;;;;;;;;;5014572;28;19909;-70
2022/04/30 06:48:29;;;;;;;;;;;;;;;;;;5013840;28;19948;-70
2022/04/30 06:50:55;;;;;;;;;;;;;;;;;;5012745;28;19921;-70
2022/04/30 06:58:59;;;;;;;;;;;;;;;;;;4974144;28;19925;-70
2022/04/30 07:04:04;;;;;;;;;;;;;;;;;;4975123;28;20418;-70
2022/04/30 07:06:30;;;;;;;;;;;;;;;;;;4975208;28;19937;-70
2022/04/30 07:08:56;;;;;;;;;;;;;;;;;;4974665;28;20361;-70
2022/04/30 07:11:22;;;;;;;;;;;;;;;;;;4974688;28;19921;-70
2022/04/30 07:13:48;;;;;;;;;;;;;;;;;;4974791;28;20412;-70
2022/04/30 07:16:14;;;;;;;;;;;;;;;;;;4974359;28;19914;-70
2022/04/30 07:18:40;;;;;;;;;;;;;;;;;;4974212;28;19916;-70
2022/04/30 07:21:06;;;;;;;;;;;;;;;;;;4973610;28;20036;-70
2022/04/30 07:23:32;;;;;;;;;;;;;;;;;;4980758;28;20356;-70
2022/04/30 07:25:58;;;;;;;;;;;;;;;;;;4977761;28;19914;-70
2022/04/30 07:28:25;;;;;;;;;;;;;;;;;;4972750;28;19929;-70
2022/04/30 07:30:51;;;;;;;;;;;;;;;;;;4980134;28;19952;-70
2022/04/30 07:33:17;;;;;;;;;;;;;;;;;;4978379;28;19917;-70
2022/04/30 07:35:43;;;;;;;;;;;;;;;;;;4992717;28;19909;-70
2022/04/30 07:38:09;;;;;;;;;;;;;;;;;;4988726;28;19914;-70
2022/04/30 07:40:38;;;;;;;;;;;;;;;;;;4984861;28;19957;-69
2022/04/30 07:43:04;;;;;;;;;;;;;;;;;;4994138;28;19913;-69
2022/04/30 07:45:30;;;;;;;;;;;;;;;;;;4993945;28;20495;-69
2022/04/30 07:47:56;;;;;;;;;;;;;;;;;;4976752;28;19956;-70
2022/04/30 07:50:23;;;;;;;;;;;;;;;;;;4973606;28;20280;-69
2022/04/30 07:52:49;;;;;;;;;;;;;;;;;;4974873;28;19910;-69
2022/04/30 07:55:15;;;;;;;;;;;;;;;;;;4977309;28;19921;-69
2022/04/30 07:57:41;;;;;;;;;;;;;;;;;;5002458;28;19996;-69
2022/04/30 08:00:07;;;;;;;;;;;;;;;;;;5016198;28;20004;-69
2022/04/30 08:02:33;;;;;;;;;;;;;;;;;;5016483;28;19917;-69
2022/04/30 08:05:02;;;;;;;;;;;;;;;;;;5016914;28;19924;-69
2022/04/30 08:07:28;;;;;;;;;;;;;;;;;;5016137;28;19948;-69
2022/04/30 08:09:54;;;;;;;;;;;;;;;;;;5016834;28;19921;-68
2022/04/30 08:12:20;;;;;;;;;;;;;;;;;;5019560;28;19913;-69
2022/04/30 08:14:46;;;;;;;;;;;;;;;;;;5018812;28;20406;-69
2022/04/30 08:17:13;;;;;;;;;;;;;;;;;;5016948;28;19916;-68
2022/04/30 08:19:39;;;;;;;;;;;;;;;;;;5016033;28;20344;-68
2022/04/30 08:22:05;;;;;;;;;;;;;;;;;;5029774;28;19945;-68
2022/04/30 08:24:31;;;;;;;;;;;;;;;;;;5016721;28;19916;-68
2022/04/30 08:26:57;;;;;;;;;;;;;;;;;;5016055;28;20252;-68
2022/04/30 08:29:23;;;;;;;;;;;;;;;;;;5010588;28;19940;-68
2022/04/30 08:31:49;;;;;;;;;;;;;;;;;;5016390;28;19913;-68
2022/04/30 08:34:16;;;;;;;;;;;;;;;;;;5015982;28;19913;-68
2022/04/30 08:36:42;;;;;;;;;;;;;;;;;;4999590;28;19936;-68
2022/04/30 08:39:07;;;;;;;;;;;;;;;;;;5016006;28;19909;-68
2022/04/30 08:41:33;;;;;;;;;;;;;;;;;;5014082;28;19959;-68
2022/04/30 08:43:59;;;;;;;;;;;;;;;;;;5016114;28;19916;-69
2022/04/30 08:46:25;;;;;;;;;;;;;;;;;;5016257;28;20482;-68
2022/04/30 08:48:51;;;;;;;;;;;;;;;;;;5014075;28;19959;-69
2022/04/30 08:51:17;;;;;;;;;;;;;;;;;;5014393;28;19960;-69
2022/04/30 08:53:43;;;;;;;;;;;;;;;;;;5010836;28;20367;-69
2022/04/30 08:56:10;;;;;;;;;;;;;;;;;;5015453;28;19910;-69
2022/04/30 08:58:36;;;;;;;;;;;;;;;;;;5015990;28;19917;-69
2022/04/30 09:01:02;;;;;;;;;;;;;;;;;;5015280;28;19910;-69
2022/04/30 09:03:28;;;;;;;;;;;;;;;;;;5015017;28;19915;-69
2022/04/30 09:05:54;;;;;;;;;;;;;;;;;;5013997;28;19909;-69
2022/04/30 09:08:20;;;;;;;;;;;;;;;;;;5014624;28;19920;-69
2022/04/30 09:10:48;;;;;;;;;;;;;;;;;;5015110;28;20008;-69
2022/04/30 09:13:14;;;;;;;;;;;;;;;;;;5014639;28;19925;-69
2022/04/30 09:15:41;;;;;;;;;;;;;;;;;;5030826;28;19909;-69
2022/04/30 09:18:08;;;;;;;;;;;;;;;;;;5033946;28;20198;-69
2022/04/30 09:20:34;;;;;;;;;;;;;;;;;;5032613;28;19944;-70
2022/04/30 09:23:00;;;;;;;;;;;;;;;;;;5015153;28;19909;-69
2022/04/30 09:25:26;;;;;;;;;;;;;;;;;;5015006;28;20011;-70
2022/04/30 09:27:52;;;;;;;;;;;;;;;;;;5014556;28;19914;-70
2022/04/30 09:30:18;;;;;;;;;;;;;;;;;;5014757;28;19921;-69
2022/04/30 09:32:44;;;;;;;;;;;;;;;;;;5015619;28;19953;-69
2022/04/30 09:37:54;;;;;;;;;;;;;;;;;;5010165;28;19940;-69
2022/04/30 09:40:20;;;;;;;;;;;;;;;;;;5034801;28;19916;-70
2022/04/30 09:42:46;;;;;;;;;;;;;;;;;;5029246;28;19909;-70
2022/04/30 09:45:12;;;;;;;;;;;;;;;;;;5015424;28;20346;-70
2022/04/30 09:47:38;;;;;;;;;;;;;;;;;;5014227;28;19943;-70
2022/04/30 09:55:34;;;;;;;;;;;;;;;;;;4994979;28;19917;-69
2022/04/30 09:58:00;;;;;;;;;;;;;;;;;;4995391;28;19918;-70
2022/04/30 10:00:26;;;;;;;;;;;;;;;;;;5004293;28;19915;-70
2022/04/30 10:02:52;;;;;;;;;;;;;;;;;;5010370;28;19964;-70
2022/04/30 10:05:18;;;;;;;;;;;;;;;;;;5013421;28;19910;-70
2022/04/30 10:07:44;;;;;;;;;;;;;;;;;;5014044;28;19918;-70
2022/04/30 10:10:10;;;;;;;;;;;;;;;;;;5015136;28;19920;-71
2022/04/30 10:12:37;;;;;;;;;;;;;;;;;;5014672;28;19909;-71
2022/04/30 10:15:04;;;;;;;;;;;;;;;;;;5013523;28;20003;-70
2022/04/30 10:17:30;;;;;;;;;;;;;;;;;;5015018;28;19945;-70
2022/04/30 10:19:58;;;;;;;;;;;;;;;;;;5014853;28;19956;-70
2022/04/30 10:22:24;;;;;;;;;;;;;;;;;;5014947;28;19936;-70
2022/04/30 10:24:50;;;;;;;;;;;;;;;;;;5014707;28;20352;-70
2022/04/30 10:27:16;;;;;;;;;;;;;;;;;;5014304;28;19917;-70
2022/04/30 10:29:42;;;;;;;;;;;;;;;;;;5014938;28;19929;-69
2022/04/30 10:32:08;;;;;;;;;;;;;;;;;;5014343;28;19936;-69
2022/04/30 10:34:34;;;;;;;;;;;;;;;;;;5014943;28;20272;-69
2022/04/30 10:37:00;;;;;;;;;;;;;;;;;;5014620;28;20008;-70
2022/04/30 10:39:26;;;;;;;;;;;;;;;;;;4996990;28;20307;-69
2022/04/30 10:41:53;;;;;;;;;;;;;;;;;;5014201;28;19909;-69
2022/04/30 10:44:19;;;;;;;;;;;;;;;;;;5013789;28;19964;-70
2022/04/30 10:46:45;;;;;;;;;;;;;;;;;;5014298;28;20394;-69
2022/04/30 10:49:11;;;;;;;;;;;;;;;;;;5013411;28;19940;-70
2022/04/30 10:51:40;;;;;;;;;;;;;;;;;;5014395;28;20004;-70
2022/04/30 10:54:06;;;;;;;;;;;;;;;;;;5014255;28;20000;-71
2022/04/30 10:56:32;;;;;;;;;;;;;;;;;;5015306;28;20383;-70
2022/04/30 10:58:58;;;;;;;;;;;;;;;;;;5015201;28;20047;-70
2022/04/30 11:01:24;;;;;;;;;;;;;;;;;;5015144;28;20299;-70
2022/04/30 11:03:50;;;;;;;;;;;;;;;;;;5015118;28;19983;-70
2022/04/30 11:06:16;;;;;;;;;;;;;;;;;;5014888;28;19910;-70
2022/04/30 11:08:42;;;;;;;;;;;;;;;;;;5014615;28;19920;-70
2022/04/30 11:11:08;;;;;;;;;;;;;;;;;;5014402;28;19913;-71
2022/04/30 11:13:34;;;;;;;;;;;;;;;;;;5014496;28;19909;-70
2022/04/30 11:16:00;;;;;;;;;;;;;;;;;;5015466;28;19936;-71
2022/04/30 11:18:26;;;;;;;;;;;;;;;;;;5014016;28;19909;-71
2022/04/30 11:20:52;;;;;;;;;;;;;;;;;;5014529;28;19909;-71
2022/04/30 11:23:18;;;;;;;;;;;;;;;;;;5014631;28;19910;-71
2022/04/30 11:25:44;;;;;;;;;;;;;;;;;;5015311;28;20342;-70
2022/04/30 11:28:10;;;;;;;;;;;;;;;;;;5016454;28;20363;-71
2022/04/30 11:30:36;;;;;;;;;;;;;;;;;;5018609;28;20062;-71
2022/04/30 11:33:02;;;;;;;;;;;;;;;;;;5019006;28;19916;-71
2022/04/30 11:35:28;;;;;;;;;;;;;;;;;;5018797;28;19910;-71
2022/04/30 11:37:54;;;;;;;;;;;;;;;;;;5019116;28;19913;-70
2022/04/30 11:40:20;;;;;;;;;;;;;;;;;;5018673;28;19913;-70
2022/04/30 11:42:46;;;;;;;;;;;;;;;;;;5010305;28;20354;-70
2022/04/30 11:45:12;;;;;;;;;;;;;;;;;;4997885;28;19983;-70
2022/04/30 11:47:38;;;;;;;;;;;;;;;;;;5013974;28;19917;-70
2022/04/30 11:50:04;;;;;;;;;;;;;;;;;;5018071;28;19914;-70
2022/04/30 11:52:30;;;;;;;;;;;;;;;;;;5017327;28;20024;-70
2022/04/30 11:54:56;;;;;;;;;;;;;;;;;;5018501;28;19909;-71
2022/04/30 11:57:22;;;;;;;;;;;;;;;;;;5018085;28;20004;-71
2022/04/30 11:59:48;;;;;;;;;;;;;;;;;;5017338;28;19909;-70
2022/04/30 12:02:15;;;;;;;;;;;;;;;;;;5017227;28;19914;-69
2022/04/30 12:04:41;;;;;;;;;;;;;;;;;;5017878;28;19910;-71
2022/04/30 12:07:07;;;;;;;;;;;;;;;;;;5017644;28;20340;-71
2022/04/30 12:09:33;;;;;;;;;;;;;;;;;;5017792;28;19917;-71
2022/04/30 12:11:59;;;;;;;;;;;;;;;;;;5017846;28;19909;-71
2022/04/30 12:14:25;;;;;;;;;;;;;;;;;;5017024;28;19921;-71
2022/04/30 12:16:51;;;;;;;;;;;;;;;;;;5019249;28;19909;-71
2022/04/30 12:24:46;;;;;;;;;;;;;;;;;;5017535;28;19917;-71
2022/04/30 12:27:12;;;;;;;;;;;;;;;;;;5017288;28;19909;-71
2022/04/30 12:29:38;;;;;;;;;;;;;;;;;;5016329;28;19921;-70
2022/04/30 12:32:04;;;;;;;;;;;;;;;;;;5017888;28;19923;-71
2022/04/30 12:34:32;;;;;;;;;;;;;;;;;;5017505;28;20325;-71
2022/04/30 12:36:58;;;;;;;;;;;;;;;;;;5017343;28;19956;-71
2022/04/30 12:39:24;;;;;;;;;;;;;;;;;;5017293;28;19921;-71
2022/04/30 12:41:50;;;;;;;;;;;;;;;;;;5016607;28;19916;-71
2022/04/30 12:44:16;;;;;;;;;;;;;;;;;;5018194;28;19909;-71
2022/04/30 12:46:43;;;;;;;;;;;;;;;;;;5018133;28;19909;-71
2022/04/30 12:49:11;;;;;;;;;;;;;;;;;;5016326;28;19913;-70
2022/04/30 12:51:38;;;;;;;;;;;;;;;;;;5017369;28;19920;-71
2022/04/30 12:54:04;;;;;;;;;;;;;;;;;;5017369;28;19948;-71
2022/04/30 12:56:31;;;;;;;;;;;;;;;;;;5017520;28;20011;-71
2022/04/30 12:58:57;;;;;;;;;;;;;;;;;;5017295;28;19951;-70
2022/04/30 13:01:23;;;;;;;;;;;;;;;;;;5018031;28;19909;-71
2022/04/30 13:03:50;;;;;;;;;;;;;;;;;;5017492;28;20063;-71
2022/04/30 13:06:16;;;;;;;;;;;;;;;;;;5017302;28;20002;-71
2022/04/30 13:14:11;;;;;;;;;;;;;;;;;;5017220;28;19940;-70
2022/04/30 13:16:37;;;;;;;;;;;;;;;;;;5018143;28;20056;-71
2022/04/30 13:19:04;;;;;;;;;;;;;;;;;;5016844;28;19949;-71
2022/04/30 13:21:30;;;;;;;;;;;;;;;;;;5017025;28;19943;-71
2022/04/30 13:23:56;;;;;;;;;;;;;;;;;;5017412;28;19916;-71
2022/04/30 13:26:22;;;;;;;;;;;;;;;;;;5017297;28;19936;-71
2022/04/30 13:28:48;;;;;;;;;;;;;;;;;;5017011;28;19960;-71
2022/04/30 13:31:14;;;;;;;;;;;;;;;;;;5017366;28;20260;-70
2022/04/30 13:33:40;;;;;;;;;;;;;;;;;;5016951;28;19909;-70
2022/04/30 13:36:07;;;;;;;;;;;;;;;;;;5013403;28;19945;-71
2022/04/30 13:38:34;;;;;;;;;;;;;;;;;;5001803;28;19917;-70
2022/04/30 13:41:01;;;;;;;;;;;;;;;;;;5015776;28;20271;-71
2022/04/30 13:43:27;;;;;;;;;;;;;;;;;;5016493;28;20267;-71
2022/04/30 13:45:53;;;;;;;;;;;;;;;;;;5015891;28;20399;-71
2022/04/30 13:48:19;;;;;;;;;;;;;;;;;;5015308;28;19917;-71
2022/04/30 13:50:45;;;;;;;;;;;;;;;;;;5015173;28;20016;-71
2022/04/30 13:53:11;;;;;;;;;;;;;;;;;;5015970;28;19956;-71
2022/04/30 13:55:37;;;;;;;;;;;;;;;;;;5015477;28;19910;-71
2022/04/30 13:58:03;;;;;;;;;;;;;;;;;;5016203;28;19952;-71
2022/04/30 14:00:29;;;;;;;;;;;;;;;;;;5016169;28;20010;-71
2022/04/30 14:02:55;;;;;;;;;;;;;;;;;;5014703;28;19919;-71
2022/04/30 14:05:21;;;;;;;;;;;;;;;;;;5014834;28;19913;-70
2022/04/30 14:07:47;;;;;;;;;;;;;;;;;;5014767;28;19913;-70
2022/04/30 14:10:13;;;;;;;;;;;;;;;;;;5015493;28;19920;-71
2022/04/30 14:12:39;;;;;;;;;;;;;;;;;;5015588;28;19945;-72
2022/04/30 14:15:05;;;;;;;;;;;;;;;;;;5014820;28;19940;-72
2022/04/30 14:20:15;;;;;;;;;;;;;;;;;;5014924;28;19921;-71
2022/04/30 14:22:41;;;;;;;;;;;;;;;;;;5014717;28;19914;-71
2022/04/30 14:25:08;;;;;;;;;;;;;;;;;;5013857;28;19913;-71
2022/04/30 14:27:34;;;;;;;;;;;;;;;;;;5013346;28;19913;-71
2022/04/30 14:30:00;;;;;;;;;;;;;;;;;;5015575;28;19914;-71
2022/04/30 14:32:26;;;;;;;;;;;;;;;;;;5015753;28;19959;-71
2022/04/30 14:34:53;;;;;;;;;;;;;;;;;;5015746;28;19913;-71
2022/04/30 14:37:19;;;;;;;;;;;;;;;;;;5015835;28;20249;-71
2022/04/30 14:39:45;;;;;;;;;;;;;;;;;;5016037;28;20024;-71
2022/04/30 14:42:12;;;;;;;;;;;;;;;;;;5015989;28;20422;-71
2022/04/30 14:44:40;;;;;;;;;;;;;;;;;;5015859;28;19936;-71
2022/04/30 14:47:08;;;;;;;;;;;;;;;;;;5016266;28;19992;-71
2022/04/30 14:49:35;;;;;;;;;;;;;;;;;;5015608;28;19913;-71
2022/04/30 14:52:01;;;;;;;;;;;;;;;;;;5015475;28;19916;-71
2022/04/30 14:54:27;;;;;;;;;;;;;;;;;;5015524;28;19910;-71
2022/04/30 14:56:53;;;;;;;;;;;;;;;;;;5015713;28;19967;-71
2022/04/30 14:59:19;;;;;;;;;;;;;;;;;;5015729;28;19945;-71
2022/04/30 15:01:46;;;;;;;;;;;;;;;;;;5015496;28;19913;-71
2022/04/30 15:04:12;;;;;;;;;;;;;;;;;;5015401;28;19984;-71
2022/04/30 15:06:38;;;;;;;;;;;;;;;;;;5015729;28;20263;-70
2022/04/30 15:09:04;;;;;;;;;;;;;;;;;;5015281;28;19953;-71
2022/04/30 15:11:30;;;;;;;;;;;;;;;;;;5015542;28;20352;-71
2022/04/30 15:13:56;;;;;;;;;;;;;;;;;;5015619;28;19916;-71
2022/04/30 15:16:22;;;;;;;;;;;;;;;;;;5016066;28;19909;-71
2022/04/30 15:18:48;;;;;;;;;;;;;;;;;;5016289;28;19964;-71
2022/04/30 15:21:14;;;;;;;;;;;;;;;;;;5015462;28;19916;-71
2022/04/30 15:23:40;;;;;;;;;;;;;;;;;;5016041;28;20414;-71
2022/04/30 15:26:06;;;;;;;;;;;;;;;;;;5014746;28;19945;-71
2022/04/30 15:28:32;;;;;;;;;;;;;;;;;;5015095;28;20003;-71
2022/04/30 15:30:58;;;;;;;;;;;;;;;;;;5015406;28;19917;-71
2022/04/30 15:33:24;;;;;;;;;;;;;;;;;;5015263;28;19916;-71
2022/04/30 15:35:50;;;;;;;;;;;;;;;;;;5015985;28;19916;-71
2022/04/30 15:38:15;;;;;;;;;;;;;;;;;;5015289;28;19920;-71
2022/04/30 15:40:47;;;;;;;;;;;;;;;;;;5015005;28;19909;-71
2022/04/30 15:43:13;;;;;;;;;;;;;;;;;;5014688;28;20315;-71
2022/04/30 15:45:39;;;;;;;;;;;;;;;;;;5014773;28;19909;-70
2022/04/30 15:53:48;;;;;;;;;;;;;;;;;;5014710;28;20375;-70
2022/04/30 15:56:14;;;;;;;;;;;;;;;;;;5014974;28;20398;-70
2022/04/30 15:58:42;;;;;;;;;;;;;;;;;;5015487;28;19909;-70
2022/04/30 16:01:09;;;;;;;;;;;;;;;;;;5014807;28;19909;-70
2022/04/30 16:03:35;;;;;;;;;;;;;;;;;;5013724;28;20008;-72
2022/04/30 16:06:01;;;;;;;;;;;;;;;;;;5015394;28;19909;-71
2022/04/30 16:08:27;;;;;;;;;;;;;;;;;;5014959;28;19920;-70
2022/04/30 16:10:53;;;;;;;;;;;;;;;;;;5013900;28;19914;-70
2022/04/30 16:13:19;;;;;;;;;;;;;;;;;;5015207;28;19909;-70
2022/04/30 16:15:45;;;;;;;;;;;;;;;;;;5017998;28;19961;-70
2022/04/30 16:18:11;;;;;;;;;;;;;;;;;;5018394;28;20271;-70
2022/04/30 16:20:37;;;;;;;;;;;;;;;;;;5012128;28;19936;-70
2022/04/30 16:23:03;;;;;;;;;;;;;;;;;;5013657;28;19957;-70
2022/04/30 16:25:29;;;;;;;;;;;;;;;;;;5018419;28;19999;-70
2022/04/30 16:27:56;;;;;;;;;;;;;;;;;;5018114;28;19917;-70
2022/04/30 16:30:21;;;;;;;;;;;;;;;;;;5017438;28;19964;-70
2022/04/30 16:32:47;;;;;;;;;;;;;;;;;;5017989;28;20336;-70
2022/04/30 16:35:16;;;;;;;;;;;;;;;;;;4999858;28;19999;-69
2022/04/30 16:37:44;;;;;;;;;;;;;;;;;;5017215;28;19916;-69
2022/04/30 16:40:10;;;;;;;;;;;;;;;;;;5016573;28;20445;-69
2022/04/30 16:42:35;;;;;;;;;;;;;;;;;;5017305;28;20008;-71
2022/04/30 16:45:01;;;;;;;;;;;;;;;;;;5017533;28;19917;-70
2022/04/30 16:47:28;;;;;;;;;;;;;;;;;;5017996;28;20368;-69
2022/04/30 16:49:54;;;;;;;;;;;;;;;;;;5017354;28;20258;-68
2022/04/30 16:52:20;;;;;;;;;;;;;;;;;;5016679;28;19960;-69
2022/04/30 16:57:31;;;;;;;;;;;;;;;;;;5016212;28;19923;-68
2022/04/30 17:00:00;;;;;;;;;;;;;;;;;;5016433;28;19913;-69
2022/04/30 17:02:25;;;;;;;;;;;;;;;;;;5017030;28;20340;-69
2022/04/30 17:04:51;;;;;;;;;;;;;;;;;;5017198;28;19909;-69
2022/04/30 17:07:18;;;;;;;;;;;;;;;;;;5017585;28;19909;-69
2022/04/30 17:09:44;;;;;;;;;;;;;;;;;;5016356;28;19913;-69
2022/04/30 17:12:09;;;;;;;;;;;;;;;;;;5016338;28;19983;-69
2022/04/30 17:14:35;;;;;;;;;;;;;;;;;;5016901;28;19909;-69
2022/04/30 17:17:01;;;;;;;;;;;;;;;;;;5017177;28;19909;-69
2022/04/30 17:19:27;;;;;;;;;;;;;;;;;;4999820;28;19910;-69
2022/04/30 17:21:53;;;;;;;;;;;;;;;;;;5017237;28;19924;-71
2022/04/30 17:24:19;;;;;;;;;;;;;;;;;;5013926;28;19913;-69
2022/04/30 17:26:45;;;;;;;;;;;;;;;;;;5016731;28;19913;-69
2022/04/30 17:29:11;;;;;;;;;;;;;;;;;;5016859;28;19920;-69
2022/04/30 17:39:52;;;;;;;;;;;;;;;;;;5016340;28;19917;-72
2022/04/30 17:42:18;;;;;;;;;;;;;;;;;;5016573;28;19909;-71
2022/04/30 17:44:44;;;;;;;;;;;;;;;;;;5016393;28;19917;-70
2022/04/30 17:47:10;;;;;;;;;;;;;;;;;;5015661;28;20356;-71
2022/04/30 17:49:36;;;;;;;;;;;;;;;;;;5016210;28;19918;-71
2022/04/30 17:52:03;;;;;;;;;;;;;;;;;;5016140;28;19918;-70
2022/04/30 17:54:29;;;;;;;;;;;;;;;;;;5016169;28;19909;-70